sensor_id;sensor_type;location;lat;lon;timestamp;P1;durP1;ratioP1;P2;durP2;ratioP2
25023;SDS011;13033;50.936;5.334;2022-09-09T00:01:50;5.13;;;1.15;;
25023;SDS011;13033;50.936;5.334;2022-09-09T00:15:20;3.42;;;1.30;;
25023;SDS011;13033;50.936;5.334;2022-09-09T00:17:52;3.83;;;1.20;;
25023;SDS011;13033;50.936;5.334;2022-09-09T00:20:21;3.85;;;1.50;;
25023;SDS011;13033;50.936;5.334;2022-09-09T00:23:38;2.97;;;1.00;;
25023;SDS011;13033;50.936;5.334;2022-09-09T00:29:51;4.03;;;1.17;;
25023;SDS011;13033;50.936;5.334;2022-09-09T00:31:59;3.78;;;1.60;;
25023;SDS011;13033;50.936;5.334;2022-09-09T00:34:36;6.22;;;1.70;;
25023;SDS011;13033;50.936;5.334;2022-09-09T00:37:09;3.17;;;1.42;;
25023;SDS011;13033;50.936;5.334;2022-09-09T00:39:39;4.43;;;1.35;;
25023;SDS011;13033;50.936;5.334;2022-09-09T00:44:36;3.30;;;1.48;;
25023;SDS011;13033;50.936;5.334;2022-09-09T00:47:14;5.60;;;1.60;;
25023;SDS011;13033;50.936;5.334;2022-09-09T00:55:21;7.93;;;1.77;;
25023;SDS011;13033;50.936;5.334;2022-09-09T00:58:09;3.90;;;1.42;;
25023;SDS011;13033;50.936;5.334;2022-09-09T01:00:39;3.28;;;1.50;;
25023;SDS011;13033;50.936;5.334;2022-09-09T01:11:33;5.80;;;1.90;;
25023;SDS011;13033;50.936;5.334;2022-09-09T01:14:31;2.63;;;1.23;;
25023;SDS011;13033;50.936;5.334;2022-09-09T01:20:29;3.03;;;1.08;;
25023;SDS011;13033;50.936;5.334;2022-09-09T01:28:35;4.78;;;1.50;;
25023;SDS011;13033;50.936;5.334;2022-09-09T01:31:03;3.58;;;1.15;;
25023;SDS011;13033;50.936;5.334;2022-09-09T01:33:30;3.58;;;1.40;;
25023;SDS011;13033;50.936;5.334;2022-09-09T01:38:54;8.15;;;1.55;;
25023;SDS011;13033;50.936;5.334;2022-09-09T01:41:20;5.10;;;1.80;;
25023;SDS011;13033;50.936;5.334;2022-09-09T01:43:46;5.18;;;1.30;;
25023;SDS011;13033;50.936;5.334;2022-09-09T01:46:13;6.95;;;1.67;;
25023;SDS011;13033;50.936;5.334;2022-09-09T01:48:38;4.57;;;1.90;;
25023;SDS011;13033;50.936;5.334;2022-09-09T01:51:05;5.63;;;1.73;;
25023;SDS011;13033;50.936;5.334;2022-09-09T01:53:32;5.53;;;1.63;;
25023;SDS011;13033;50.936;5.334;2022-09-09T01:58:43;6.38;;;1.77;;
25023;SDS011;13033;50.936;5.334;2022-09-09T02:03:57;6.53;;;1.90;;
25023;SDS011;13033;50.936;5.334;2022-09-09T02:06:38;4.50;;;1.70;;
25023;SDS011;13033;50.936;5.334;2022-09-09T02:09:06;6.07;;;1.88;;
25023;SDS011;13033;50.936;5.334;2022-09-09T02:11:35;6.47;;;1.80;;
25023;SDS011;13033;50.936;5.334;2022-09-09T02:14:06;7.05;;;2.22;;
25023;SDS011;13033;50.936;5.334;2022-09-09T02:16:45;6.65;;;1.90;;
25023;SDS011;13033;50.936;5.334;2022-09-09T02:19:21;4.53;;;1.80;;
25023;SDS011;13033;50.936;5.334;2022-09-09T02:21:52;6.65;;;2.00;;
25023;SDS011;13033;50.936;5.334;2022-09-09T02:24:23;8.55;;;1.92;;
25023;SDS011;13033;50.936;5.334;2022-09-09T02:26:51;6.72;;;2.13;;
25023;SDS011;13033;50.936;5.334;2022-09-09T02:29:30;5.53;;;2.08;;
25023;SDS011;13033;50.936;5.334;2022-09-09T02:32:03;6.18;;;2.05;;
25023;SDS011;13033;50.936;5.334;2022-09-09T02:34:34;7.95;;;1.90;;
25023;SDS011;13033;50.936;5.334;2022-09-09T02:37:01;5.95;;;2.00;;
25023;SDS011;13033;50.936;5.334;2022-09-09T02:39:28;6.85;;;1.88;;
25023;SDS011;13033;50.936;5.334;2022-09-09T02:41:54;7.75;;;2.10;;
25023;SDS011;13033;50.936;5.334;2022-09-09T02:44:20;6.80;;;2.22;;
25023;SDS011;13033;50.936;5.334;2022-09-09T02:50:00;10.60;;;2.08;;
25023;SDS011;13033;50.936;5.334;2022-09-09T02:52:32;9.15;;;1.98;;
25023;SDS011;13033;50.936;5.334;2022-09-09T02:56:08;10.32;;;2.17;;
25023;SDS011;13033;50.936;5.334;2022-09-09T02:58:05;6.53;;;1.80;;
25023;SDS011;13033;50.936;5.334;2022-09-09T03:00:34;8.23;;;2.10;;
25023;SDS011;13033;50.936;5.334;2022-09-09T03:03:02;7.70;;;1.70;;
25023;SDS011;13033;50.936;5.334;2022-09-09T03:05:28;7.05;;;1.80;;
25023;SDS011;13033;50.936;5.334;2022-09-09T03:07:54;8.25;;;2.35;;
25023;SDS011;13033;50.936;5.334;2022-09-09T03:10:19;9.32;;;2.40;;
25023;SDS011;13033;50.936;5.334;2022-09-09T03:12:45;5.40;;;1.77;;
25023;SDS011;13033;50.936;5.334;2022-09-09T03:15:11;7.53;;;1.65;;
25023;SDS011;13033;50.936;5.334;2022-09-09T03:17:37;7.25;;;1.88;;
25023;SDS011;13033;50.936;5.334;2022-09-09T03:20:03;3.97;;;1.45;;
25023;SDS011;13033;50.936;5.334;2022-09-09T03:22:29;10.50;;;1.75;;
25023;SDS011;13033;50.936;5.334;2022-09-09T03:24:55;8.45;;;2.10;;
25023;SDS011;13033;50.936;5.334;2022-09-09T03:27:20;9.15;;;1.77;;
25023;SDS011;13033;50.936;5.334;2022-09-09T03:29:46;6.32;;;1.92;;
25023;SDS011;13033;50.936;5.334;2022-09-09T03:32:12;7.53;;;1.63;;
25023;SDS011;13033;50.936;5.334;2022-09-09T03:34:38;7.22;;;1.83;;
25023;SDS011;13033;50.936;5.334;2022-09-09T03:37:06;12.93;;;2.33;;
25023;SDS011;13033;50.936;5.334;2022-09-09T03:39:32;9.98;;;1.90;;
25023;SDS011;13033;50.936;5.334;2022-09-09T03:41:57;10.95;;;1.92;;
25023;SDS011;13033;50.936;5.334;2022-09-09T03:44:23;6.10;;;1.77;;
25023;SDS011;13033;50.936;5.334;2022-09-09T03:46:48;7.80;;;1.80;;
25023;SDS011;13033;50.936;5.334;2022-09-09T03:49:14;8.63;;;1.90;;
25023;SDS011;13033;50.936;5.334;2022-09-09T03:51:40;7.05;;;1.83;;
25023;SDS011;13033;50.936;5.334;2022-09-09T03:54:06;5.82;;;1.85;;
25023;SDS011;13033;50.936;5.334;2022-09-09T03:56:35;8.65;;;1.63;;
25023;SDS011;13033;50.936;5.334;2022-09-09T03:59:01;7.47;;;1.80;;
25023;SDS011;13033;50.936;5.334;2022-09-09T04:01:27;4.22;;;1.55;;
25023;SDS011;13033;50.936;5.334;2022-09-09T04:03:53;8.00;;;1.70;;
25023;SDS011;13033;50.936;5.334;2022-09-09T04:06:20;9.85;;;1.83;;
25023;SDS011;13033;50.936;5.334;2022-09-09T04:08:46;5.13;;;1.80;;
25023;SDS011;13033;50.936;5.334;2022-09-09T04:11:13;6.43;;;1.65;;
25023;SDS011;13033;50.936;5.334;2022-09-09T04:13:40;5.82;;;1.75;;
25023;SDS011;13033;50.936;5.334;2022-09-09T04:16:06;10.35;;;2.05;;
25023;SDS011;13033;50.936;5.334;2022-09-09T04:18:34;6.03;;;1.40;;
25023;SDS011;13033;50.936;5.334;2022-09-09T04:20:59;8.45;;;1.80;;
25023;SDS011;13033;50.936;5.334;2022-09-09T04:23:26;12.15;;;1.85;;
25023;SDS011;13033;50.936;5.334;2022-09-09T04:25:54;11.35;;;2.17;;
25023;SDS011;13033;50.936;5.334;2022-09-09T04:28:22;7.05;;;1.67;;
25023;SDS011;13033;50.936;5.334;2022-09-09T04:30:49;7.40;;;1.83;;
25023;SDS011;13033;50.936;5.334;2022-09-09T04:33:15;9.27;;;1.80;;
25023;SDS011;13033;50.936;5.334;2022-09-09T04:35:45;5.10;;;1.40;;
25023;SDS011;13033;50.936;5.334;2022-09-09T04:38:13;7.07;;;1.90;;
25023;SDS011;13033;50.936;5.334;2022-09-09T04:40:39;6.53;;;1.92;;
25023;SDS011;13033;50.936;5.334;2022-09-09T04:43:08;10.40;;;1.95;;
25023;SDS011;13033;50.936;5.334;2022-09-09T04:45:34;8.30;;;1.90;;
25023;SDS011;13033;50.936;5.334;2022-09-09T04:48:00;5.45;;;1.70;;
25023;SDS011;13033;50.936;5.334;2022-09-09T04:50:27;7.55;;;1.70;;
25023;SDS011;13033;50.936;5.334;2022-09-09T04:52:53;7.68;;;2.08;;
25023;SDS011;13033;50.936;5.334;2022-09-09T04:55:19;8.60;;;2.47;;
25023;SDS011;13033;50.936;5.334;2022-09-09T04:57:45;9.02;;;2.45;;
25023;SDS011;13033;50.936;5.334;2022-09-09T05:00:10;7.85;;;1.92;;
25023;SDS011;13033;50.936;5.334;2022-09-09T05:02:38;11.27;;;2.13;;
25023;SDS011;13033;50.936;5.334;2022-09-09T05:05:04;7.10;;;2.03;;
25023;SDS011;13033;50.936;5.334;2022-09-09T05:07:30;9.38;;;2.28;;
25023;SDS011;13033;50.936;5.334;2022-09-09T05:09:56;7.82;;;1.90;;
25023;SDS011;13033;50.936;5.334;2022-09-09T05:12:22;7.97;;;2.70;;
25023;SDS011;13033;50.936;5.334;2022-09-09T05:14:50;11.13;;;2.05;;
25023;SDS011;13033;50.936;5.334;2022-09-09T05:17:16;6.13;;;2.22;;
25023;SDS011;13033;50.936;5.334;2022-09-09T05:19:42;9.10;;;2.38;;
25023;SDS011;13033;50.936;5.334;2022-09-09T05:22:09;12.00;;;2.58;;
25023;SDS011;13033;50.936;5.334;2022-09-09T05:24:36;12.63;;;1.77;;
25023;SDS011;13033;50.936;5.334;2022-09-09T05:27:03;8.57;;;2.47;;
25023;SDS011;13033;50.936;5.334;2022-09-09T05:29:31;9.23;;;2.92;;
25023;SDS011;13033;50.936;5.334;2022-09-09T05:31:58;12.25;;;2.42;;
25023;SDS011;13033;50.936;5.334;2022-09-09T05:34:24;10.10;;;2.33;;
25023;SDS011;13033;50.936;5.334;2022-09-09T05:36:50;8.32;;;1.70;;
25023;SDS011;13033;50.936;5.334;2022-09-09T05:39:17;12.73;;;2.28;;
25023;SDS011;13033;50.936;5.334;2022-09-09T05:41:43;11.07;;;2.78;;
25023;SDS011;13033;50.936;5.334;2022-09-09T05:44:08;14.77;;;2.78;;
25023;SDS011;13033;50.936;5.334;2022-09-09T05:46:34;8.80;;;2.58;;
25023;SDS011;13033;50.936;5.334;2022-09-09T05:49:02;9.57;;;2.28;;
25023;SDS011;13033;50.936;5.334;2022-09-09T05:51:28;9.48;;;2.30;;
25023;SDS011;13033;50.936;5.334;2022-09-09T05:53:57;10.45;;;2.22;;
25023;SDS011;13033;50.936;5.334;2022-09-09T05:56:26;9.75;;;2.28;;
25023;SDS011;13033;50.936;5.334;2022-09-09T05:58:54;8.45;;;2.22;;
25023;SDS011;13033;50.936;5.334;2022-09-09T06:01:25;9.88;;;2.40;;
25023;SDS011;13033;50.936;5.334;2022-09-09T06:03:52;10.80;;;2.65;;
25023;SDS011;13033;50.936;5.334;2022-09-09T06:06:19;10.50;;;2.13;;
25023;SDS011;13033;50.936;5.334;2022-09-09T06:08:47;14.57;;;2.45;;
25023;SDS011;13033;50.936;5.334;2022-09-09T06:11:15;10.00;;;2.65;;
25023;SDS011;13033;50.936;5.334;2022-09-09T06:13:42;8.27;;;2.20;;
25023;SDS011;13033;50.936;5.334;2022-09-09T06:16:09;11.00;;;2.20;;
25023;SDS011;13033;50.936;5.334;2022-09-09T06:18:36;11.55;;;2.40;;
25023;SDS011;13033;50.936;5.334;2022-09-09T06:21:03;9.52;;;2.38;;
25023;SDS011;13033;50.936;5.334;2022-09-09T06:23:31;8.48;;;2.67;;
25023;SDS011;13033;50.936;5.334;2022-09-09T06:26:03;9.55;;;2.05;;
25023;SDS011;13033;50.936;5.334;2022-09-09T06:28:33;7.72;;;1.90;;
25023;SDS011;13033;50.936;5.334;2022-09-09T06:31:00;11.93;;;2.30;;
25023;SDS011;13033;50.936;5.334;2022-09-09T06:33:30;7.50;;;2.20;;
25023;SDS011;13033;50.936;5.334;2022-09-09T06:35:59;10.90;;;2.65;;
25023;SDS011;13033;50.936;5.334;2022-09-09T06:38:25;9.18;;;2.50;;
25023;SDS011;13033;50.936;5.334;2022-09-09T06:40:52;11.02;;;2.08;;
25023;SDS011;13033;50.936;5.334;2022-09-09T06:43:23;9.67;;;1.97;;
25023;SDS011;13033;50.936;5.334;2022-09-09T06:46:02;12.60;;;2.20;;
25023;SDS011;13033;50.936;5.334;2022-09-09T06:48:30;8.00;;;2.45;;
25023;SDS011;13033;50.936;5.334;2022-09-09T06:51:02;7.97;;;1.42;;
25023;SDS011;13033;50.936;5.334;2022-09-09T06:53:33;11.50;;;2.38;;
25023;SDS011;13033;50.936;5.334;2022-09-09T06:56:01;10.93;;;2.13;;
25023;SDS011;13033;50.936;5.334;2022-09-09T06:58:27;11.73;;;2.50;;
25023;SDS011;13033;50.936;5.334;2022-09-09T07:01:01;11.38;;;2.25;;
25023;SDS011;13033;50.936;5.334;2022-09-09T07:03:30;8.40;;;2.40;;
25023;SDS011;13033;50.936;5.334;2022-09-09T07:05:56;8.70;;;2.10;;
25023;SDS011;13033;50.936;5.334;2022-09-09T07:08:22;9.93;;;1.85;;
25023;SDS011;13033;50.936;5.334;2022-09-09T07:10:49;8.15;;;2.30;;
25023;SDS011;13033;50.936;5.334;2022-09-09T07:13:18;10.57;;;2.17;;
25023;SDS011;13033;50.936;5.334;2022-09-09T07:15:50;11.93;;;2.00;;
25023;SDS011;13033;50.936;5.334;2022-09-09T07:18:16;5.60;;;1.70;;
25023;SDS011;13033;50.936;5.334;2022-09-09T07:20:42;31.27;;;4.78;;
25023;SDS011;13033;50.936;5.334;2022-09-09T07:23:07;15.73;;;3.08;;
25023;SDS011;13033;50.936;5.334;2022-09-09T07:25:33;10.45;;;2.00;;
25023;SDS011;13033;50.936;5.334;2022-09-09T07:27:59;12.23;;;2.28;;
25023;SDS011;13033;50.936;5.334;2022-09-09T07:30:24;15.60;;;2.63;;
25023;SDS011;13033;50.936;5.334;2022-09-09T07:32:51;9.13;;;2.10;;
25023;SDS011;13033;50.936;5.334;2022-09-09T07:35:17;12.10;;;2.58;;
25023;SDS011;13033;50.936;5.334;2022-09-09T07:37:42;10.75;;;1.88;;
25023;SDS011;13033;50.936;5.334;2022-09-09T07:40:08;9.18;;;2.17;;
25023;SDS011;13033;50.936;5.334;2022-09-09T07:42:35;7.60;;;2.00;;
25023;SDS011;13033;50.936;5.334;2022-09-09T07:45:02;6.50;;;2.05;;
25023;SDS011;13033;50.936;5.334;2022-09-09T07:47:28;10.95;;;2.28;;
25023;SDS011;13033;50.936;5.334;2022-09-09T07:49:54;11.05;;;2.35;;
25023;SDS011;13033;50.936;5.334;2022-09-09T07:52:20;16.35;;;2.55;;
25023;SDS011;13033;50.936;5.334;2022-09-09T07:54:46;9.77;;;2.08;;
25023;SDS011;13033;50.936;5.334;2022-09-09T07:57:12;11.02;;;2.22;;
25023;SDS011;13033;50.936;5.334;2022-09-09T07:59:38;8.30;;;1.77;;
25023;SDS011;13033;50.936;5.334;2022-09-09T08:02:04;9.27;;;1.92;;
25023;SDS011;13033;50.936;5.334;2022-09-09T08:04:30;7.85;;;2.08;;
25023;SDS011;13033;50.936;5.334;2022-09-09T08:06:56;7.60;;;2.00;;
25023;SDS011;13033;50.936;5.334;2022-09-09T08:09:24;12.18;;;2.28;;
25023;SDS011;13033;50.936;5.334;2022-09-09T08:11:53;9.88;;;2.30;;
25023;SDS011;13033;50.936;5.334;2022-09-09T08:14:21;11.73;;;1.80;;
25023;SDS011;13033;50.936;5.334;2022-09-09T08:16:48;12.45;;;2.83;;
25023;SDS011;13033;50.936;5.334;2022-09-09T08:19:15;7.93;;;1.75;;
25023;SDS011;13033;50.936;5.334;2022-09-09T08:21:42;11.18;;;2.00;;
25023;SDS011;13033;50.936;5.334;2022-09-09T08:24:08;16.00;;;2.30;;
25023;SDS011;13033;50.936;5.334;2022-09-09T08:26:40;13.65;;;2.30;;
25023;SDS011;13033;50.936;5.334;2022-09-09T08:29:11;17.92;;;3.03;;
25023;SDS011;13033;50.936;5.334;2022-09-09T08:31:42;9.27;;;1.70;;
25023;SDS011;13033;50.936;5.334;2022-09-09T08:34:13;8.82;;;2.40;;
25023;SDS011;13033;50.936;5.334;2022-09-09T08:36:40;14.45;;;2.88;;
25023;SDS011;13033;50.936;5.334;2022-09-09T08:39:08;8.05;;;1.90;;
25023;SDS011;13033;50.936;5.334;2022-09-09T08:41:54;8.68;;;1.88;;
25023;SDS011;13033;50.936;5.334;2022-09-09T08:50:06;11.82;;;2.30;;
25023;SDS011;13033;50.936;5.334;2022-09-09T08:52:57;10.32;;;2.25;;
25023;SDS011;13033;50.936;5.334;2022-09-09T08:55:46;11.33;;;2.00;;
25023;SDS011;13033;50.936;5.334;2022-09-09T08:58:19;7.97;;;2.03;;
25023;SDS011;13033;50.936;5.334;2022-09-09T09:03:35;9.32;;;1.95;;
25023;SDS011;13033;50.936;5.334;2022-09-09T09:06:31;12.10;;;2.10;;
25023;SDS011;13033;50.936;5.334;2022-09-09T09:12:01;7.97;;;1.90;;
25023;SDS011;13033;50.936;5.334;2022-09-09T09:14:39;9.05;;;2.00;;
25023;SDS011;13033;50.936;5.334;2022-09-09T09:17:06;7.65;;;1.60;;
25023;SDS011;13033;50.936;5.334;2022-09-09T09:19:38;8.27;;;2.00;;
25023;SDS011;13033;50.936;5.334;2022-09-09T09:25:20;8.32;;;1.92;;
25023;SDS011;13033;50.936;5.334;2022-09-09T09:28:17;10.98;;;2.00;;
25023;SDS011;13033;50.936;5.334;2022-09-09T09:31:21;8.82;;;1.63;;
25023;SDS011;13033;50.936;5.334;2022-09-09T09:36:06;8.00;;;1.58;;
25023;SDS011;13033;50.936;5.334;2022-09-09T09:38:33;6.32;;;1.30;;
25023;SDS011;13033;50.936;5.334;2022-09-09T09:41:00;6.22;;;1.30;;
25023;SDS011;13033;50.936;5.334;2022-09-09T09:43:26;5.18;;;1.50;;
25023;SDS011;13033;50.936;5.334;2022-09-09T09:45:54;9.82;;;1.83;;
25023;SDS011;13033;50.936;5.334;2022-09-09T09:48:22;5.72;;;1.30;;
25023;SDS011;13033;50.936;5.334;2022-09-09T09:51:03;4.93;;;1.45;;
25023;SDS011;13033;50.936;5.334;2022-09-09T09:53:35;5.72;;;1.20;;
25023;SDS011;13033;50.936;5.334;2022-09-09T09:56:03;6.18;;;1.35;;
25023;SDS011;13033;50.936;5.334;2022-09-09T09:58:33;5.53;;;1.38;;
25023;SDS011;13033;50.936;5.334;2022-09-09T10:01:27;7.25;;;1.80;;
25023;SDS011;13033;50.936;5.334;2022-09-09T10:06:38;5.57;;;1.40;;
25023;SDS011;13033;50.936;5.334;2022-09-09T10:09:18;5.47;;;1.52;;
25023;SDS011;13033;50.936;5.334;2022-09-09T10:12:05;6.57;;;1.80;;
25023;SDS011;13033;50.936;5.334;2022-09-09T10:14:41;9.75;;;1.80;;
25023;SDS011;13033;50.936;5.334;2022-09-09T10:20:40;10.02;;;2.05;;
25023;SDS011;13033;50.936;5.334;2022-09-09T10:34:54;8.18;;;2.28;;
25023;SDS011;13033;50.936;5.334;2022-09-09T10:42:43;8.13;;;2.50;;
25023;SDS011;13033;50.936;5.334;2022-09-09T10:45:28;9.48;;;2.40;;
25023;SDS011;13033;50.936;5.334;2022-09-09T10:53:24;8.82;;;2.33;;
25023;SDS011;13033;50.936;5.334;2022-09-09T10:56:09;8.00;;;2.33;;
25023;SDS011;13033;50.936;5.334;2022-09-09T10:58:56;7.97;;;2.50;;
25023;SDS011;13033;50.936;5.334;2022-09-09T11:01:26;8.00;;;2.63;;
25023;SDS011;13033;50.936;5.334;2022-09-09T11:04:03;6.88;;;2.13;;
25023;SDS011;13033;50.936;5.334;2022-09-09T11:06:43;7.45;;;2.30;;
25023;SDS011;13033;50.936;5.334;2022-09-09T11:09:16;9.98;;;2.38;;
25023;SDS011;13033;50.936;5.334;2022-09-09T11:11:52;7.07;;;2.28;;
25023;SDS011;13033;50.936;5.334;2022-09-09T11:15:03;9.43;;;2.38;;
25023;SDS011;13033;50.936;5.334;2022-09-09T11:17:15;10.98;;;2.38;;
25023;SDS011;13033;50.936;5.334;2022-09-09T11:19:44;7.85;;;2.70;;
25023;SDS011;13033;50.936;5.334;2022-09-09T11:32:47;5.05;;;2.10;;
25023;SDS011;13033;50.936;5.334;2022-09-09T11:35:47;9.00;;;2.35;;
25023;SDS011;13033;50.936;5.334;2022-09-09T11:38:39;5.88;;;1.77;;
25023;SDS011;13033;50.936;5.334;2022-09-09T11:41:06;7.80;;;2.35;;
25023;SDS011;13033;50.936;5.334;2022-09-09T11:43:41;4.85;;;2.00;;
25023;SDS011;13033;50.936;5.334;2022-09-09T11:46:10;7.72;;;2.30;;
25023;SDS011;13033;50.936;5.334;2022-09-09T11:48:41;8.48;;;2.10;;
25023;SDS011;13033;50.936;5.334;2022-09-09T11:54:00;9.63;;;2.10;;
25023;SDS011;13033;50.936;5.334;2022-09-09T11:56:32;7.82;;;1.92;;
25023;SDS011;13033;50.936;5.334;2022-09-09T12:07:30;7.07;;;1.95;;
25023;SDS011;13033;50.936;5.334;2022-09-09T12:12:45;6.47;;;2.20;;
25023;SDS011;13033;50.936;5.334;2022-09-09T12:17:44;12.35;;;2.50;;
25023;SDS011;13033;50.936;5.334;2022-09-09T12:20:21;8.05;;;2.42;;
25023;SDS011;13033;50.936;5.334;2022-09-09T12:25:47;6.57;;;1.70;;
25023;SDS011;13033;50.936;5.334;2022-09-09T12:28:18;7.00;;;2.13;;
25023;SDS011;13033;50.936;5.334;2022-09-09T12:33:53;5.97;;;1.70;;
25023;SDS011;13033;50.936;5.334;2022-09-09T12:36:21;5.95;;;1.40;;
25023;SDS011;13033;50.936;5.334;2022-09-09T12:38:52;5.88;;;1.33;;
25023;SDS011;13033;50.936;5.334;2022-09-09T12:41:20;3.65;;;1.70;;
25023;SDS011;13033;50.936;5.334;2022-09-09T12:43:50;8.00;;;1.75;;
25023;SDS011;13033;50.936;5.334;2022-09-09T12:46:25;7.55;;;1.70;;
25023;SDS011;13033;50.936;5.334;2022-09-09T12:52:07;5.82;;;1.77;;
25023;SDS011;13033;50.936;5.334;2022-09-09T12:54:46;7.55;;;2.10;;
25023;SDS011;13033;50.936;5.334;2022-09-09T12:57:12;5.65;;;2.03;;
25023;SDS011;13033;50.936;5.334;2022-09-09T12:59:40;6.18;;;1.95;;
25023;SDS011;13033;50.936;5.334;2022-09-09T13:02:22;5.05;;;1.67;;
25023;SDS011;13033;50.936;5.334;2022-09-09T13:04:50;6.90;;;1.50;;
25023;SDS011;13033;50.936;5.334;2022-09-09T13:07:18;5.03;;;1.85;;
25023;SDS011;13033;50.936;5.334;2022-09-09T13:09:47;8.05;;;2.17;;
25023;SDS011;13033;50.936;5.334;2022-09-09T13:12:21;8.98;;;2.20;;
25023;SDS011;13033;50.936;5.334;2022-09-09T13:14:53;4.63;;;1.63;;
25023;SDS011;13033;50.936;5.334;2022-09-09T13:17:25;5.93;;;1.95;;
25023;SDS011;13033;50.936;5.334;2022-09-09T13:19:55;5.15;;;1.65;;
25023;SDS011;13033;50.936;5.334;2022-09-09T13:22:37;5.13;;;1.73;;
25023;SDS011;13033;50.936;5.334;2022-09-09T13:27:37;7.07;;;1.85;;
25023;SDS011;13033;50.936;5.334;2022-09-09T13:35:56;4.50;;;2.17;;
25023;SDS011;13033;50.936;5.334;2022-09-09T13:38:24;6.75;;;1.95;;
25023;SDS011;13033;50.936;5.334;2022-09-09T13:40:54;5.15;;;1.42;;
25023;SDS011;13033;50.936;5.334;2022-09-09T13:43:27;3.83;;;1.45;;
25023;SDS011;13033;50.936;5.334;2022-09-09T13:45:54;6.47;;;1.70;;
25023;SDS011;13033;50.936;5.334;2022-09-09T13:48:22;6.78;;;1.40;;
25023;SDS011;13033;50.936;5.334;2022-09-09T13:50:56;8.02;;;1.80;;
25023;SDS011;13033;50.936;5.334;2022-09-09T13:53:23;5.40;;;1.40;;
25023;SDS011;13033;50.936;5.334;2022-09-09T13:55:49;5.95;;;1.52;;
25023;SDS011;13033;50.936;5.334;2022-09-09T13:58:16;5.10;;;1.20;;
25023;SDS011;13033;50.936;5.334;2022-09-09T14:00:44;7.18;;;1.50;;
25023;SDS011;13033;50.936;5.334;2022-09-09T14:03:10;6.15;;;1.20;;
25023;SDS011;13033;50.936;5.334;2022-09-09T14:05:36;6.07;;;1.48;;
25023;SDS011;13033;50.936;5.334;2022-09-09T14:08:03;7.38;;;1.52;;
25023;SDS011;13033;50.936;5.334;2022-09-09T14:10:30;5.10;;;1.38;;
25023;SDS011;13033;50.936;5.334;2022-09-09T14:12:56;5.60;;;1.42;;
25023;SDS011;13033;50.936;5.334;2022-09-09T14:15:22;3.47;;;1.13;;
25023;SDS011;13033;50.936;5.334;2022-09-09T14:17:47;6.35;;;1.30;;
25023;SDS011;13033;50.936;5.334;2022-09-09T14:20:13;4.97;;;1.40;;
25023;SDS011;13033;50.936;5.334;2022-09-09T14:22:40;6.30;;;1.52;;
25023;SDS011;13033;50.936;5.334;2022-09-09T14:25:06;7.22;;;1.67;;
25023;SDS011;13033;50.936;5.334;2022-09-09T14:27:33;5.28;;;1.65;;
25023;SDS011;13033;50.936;5.334;2022-09-09T14:29:58;3.03;;;1.08;;
25023;SDS011;13033;50.936;5.334;2022-09-09T14:32:25;3.63;;;1.40;;
25023;SDS011;13033;50.936;5.334;2022-09-09T14:34:51;2.72;;;1.35;;
25023;SDS011;13033;50.936;5.334;2022-09-09T14:37:17;6.15;;;1.50;;
25023;SDS011;13033;50.936;5.334;2022-09-09T14:39:43;3.97;;;0.90;;
25023;SDS011;13033;50.936;5.334;2022-09-09T14:42:12;4.95;;;1.20;;
25023;SDS011;13033;50.936;5.334;2022-09-09T14:44:38;4.18;;;1.17;;
25023;SDS011;13033;50.936;5.334;2022-09-09T14:47:05;6.35;;;1.40;;
25023;SDS011;13033;50.936;5.334;2022-09-09T14:49:33;4.50;;;1.00;;
25023;SDS011;13033;50.936;5.334;2022-09-09T14:51:59;7.28;;;1.23;;
25023;SDS011;13033;50.936;5.334;2022-09-09T14:54:24;4.10;;;1.17;;
25023;SDS011;13033;50.936;5.334;2022-09-09T14:56:50;3.63;;;1.30;;
25023;SDS011;13033;50.936;5.334;2022-09-09T14:59:16;2.95;;;1.08;;
25023;SDS011;13033;50.936;5.334;2022-09-09T15:01:41;4.70;;;1.20;;
25023;SDS011;13033;50.936;5.334;2022-09-09T15:04:07;4.18;;;1.10;;
25023;SDS011;13033;50.936;5.334;2022-09-09T15:06:36;3.63;;;1.38;;
25023;SDS011;13033;50.936;5.334;2022-09-09T15:09:04;4.80;;;1.20;;
25023;SDS011;13033;50.936;5.334;2022-09-09T15:11:30;3.78;;;1.23;;
25023;SDS011;13033;50.936;5.334;2022-09-09T15:14:02;4.78;;;1.33;;
25023;SDS011;13033;50.936;5.334;2022-09-09T15:16:32;3.95;;;1.17;;
25023;SDS011;13033;50.936;5.334;2022-09-09T15:18:58;3.95;;;1.25;;
25023;SDS011;13033;50.936;5.334;2022-09-09T15:21:27;2.88;;;1.08;;
25023;SDS011;13033;50.936;5.334;2022-09-09T15:23:58;4.00;;;1.20;;
25023;SDS011;13033;50.936;5.334;2022-09-09T15:26:24;3.30;;;1.15;;
25023;SDS011;13033;50.936;5.334;2022-09-09T15:28:50;3.40;;;1.08;;
25023;SDS011;13033;50.936;5.334;2022-09-09T15:31:17;2.72;;;1.35;;
25023;SDS011;13033;50.936;5.334;2022-09-09T15:36:22;4.10;;;1.38;;
25023;SDS011;13033;50.936;5.334;2022-09-09T15:38:49;6.25;;;1.40;;
25023;SDS011;13033;50.936;5.334;2022-09-09T15:41:15;5.00;;;1.38;;
25023;SDS011;13033;50.936;5.334;2022-09-09T15:43:43;4.47;;;1.20;;
25023;SDS011;13033;50.936;5.334;2022-09-09T15:48:42;6.70;;;1.40;;
25023;SDS011;13033;50.936;5.334;2022-09-09T15:51:09;5.97;;;1.90;;
25023;SDS011;13033;50.936;5.334;2022-09-09T15:53:35;4.43;;;1.45;;
25023;SDS011;13033;50.936;5.334;2022-09-09T15:56:04;3.97;;;1.77;;
25023;SDS011;13033;50.936;5.334;2022-09-09T15:58:31;3.72;;;1.38;;
25023;SDS011;13033;50.936;5.334;2022-09-09T16:01:07;3.78;;;1.40;;
25023;SDS011;13033;50.936;5.334;2022-09-09T16:03:34;4.93;;;1.55;;
25023;SDS011;13033;50.936;5.334;2022-09-09T16:06:04;5.25;;;1.20;;
25023;SDS011;13033;50.936;5.334;2022-09-09T16:08:40;4.65;;;1.20;;
25023;SDS011;13033;50.936;5.334;2022-09-09T16:11:14;3.80;;;1.40;;
25023;SDS011;13033;50.936;5.334;2022-09-09T16:13:48;5.18;;;1.38;;
25023;SDS011;13033;50.936;5.334;2022-09-09T16:16:15;5.18;;;1.30;;
25023;SDS011;13033;50.936;5.334;2022-09-09T16:18:45;3.25;;;1.17;;
25023;SDS011;13033;50.936;5.334;2022-09-09T16:21:14;4.43;;;1.20;;
25023;SDS011;13033;50.936;5.334;2022-09-09T16:23:42;2.30;;;1.23;;
25023;SDS011;13033;50.936;5.334;2022-09-09T16:26:10;1.42;;;0.90;;
25023;SDS011;13033;50.936;5.334;2022-09-09T16:28:37;4.80;;;1.10;;
25023;SDS011;13033;50.936;5.334;2022-09-09T16:31:05;3.17;;;1.10;;
25023;SDS011;13033;50.936;5.334;2022-09-09T16:33:35;5.65;;;1.45;;
25023;SDS011;13033;50.936;5.334;2022-09-09T16:36:08;6.05;;;1.60;;
25023;SDS011;13033;50.936;5.334;2022-09-09T16:38:35;4.50;;;1.17;;
25023;SDS011;13033;50.936;5.334;2022-09-09T16:41:02;3.67;;;1.20;;
25023;SDS011;13033;50.936;5.334;2022-09-09T16:43:30;3.22;;;1.15;;
25023;SDS011;13033;50.936;5.334;2022-09-09T16:45:57;2.92;;;1.23;;
25023;SDS011;13033;50.936;5.334;2022-09-09T16:48:25;4.03;;;1.10;;
25023;SDS011;13033;50.936;5.334;2022-09-09T16:51:04;6.45;;;1.80;;
25023;SDS011;13033;50.936;5.334;2022-09-09T16:53:36;5.03;;;1.27;;
25023;SDS011;13033;50.936;5.334;2022-09-09T16:56:05;5.72;;;1.25;;
25023;SDS011;13033;50.936;5.334;2022-09-09T16:58:32;9.98;;;1.58;;
25023;SDS011;13033;50.936;5.334;2022-09-09T17:00:58;4.30;;;1.30;;
25023;SDS011;13033;50.936;5.334;2022-09-09T17:03:25;5.70;;;1.45;;
25023;SDS011;13033;50.936;5.334;2022-09-09T17:05:51;3.83;;;1.33;;
25023;SDS011;13033;50.936;5.334;2022-09-09T17:08:16;3.00;;;1.20;;
25023;SDS011;13033;50.936;5.334;2022-09-09T17:10:42;6.75;;;1.40;;
25023;SDS011;13033;50.936;5.334;2022-09-09T17:13:08;4.10;;;1.40;;
25023;SDS011;13033;50.936;5.334;2022-09-09T17:15:33;4.72;;;1.38;;
25023;SDS011;13033;50.936;5.334;2022-09-09T17:18:07;5.07;;;1.40;;
25023;SDS011;13033;50.936;5.334;2022-09-09T17:20:37;5.57;;;1.15;;
25023;SDS011;13033;50.936;5.334;2022-09-09T17:23:04;4.75;;;1.20;;
25023;SDS011;13033;50.936;5.334;2022-09-09T17:25:34;6.13;;;1.08;;
25023;SDS011;13033;50.936;5.334;2022-09-09T17:28:00;3.83;;;1.40;;